Terminal Aerodrome Forecast
Issued by NWS

Home | Current Version | Previous Version | Text Only | Print | Product List | Glossary Off
Versions: 1 2 3 4 5 6 7 8 9 10 11 12 13 14 15 16 17 18 19 20 21 22 23 24

679
FTUS43 KIWX 090536
TAFSBN
TAF
KSBN 090536Z 0906/1006 29010KT P6SM -SHSN OVC012
      TEMPO 0906/0910 2SM -SHSN OVC008
     FM091400 32013G19KT 5SM -SHSN OVC015
     FM100300 31013KT 3SM -SHSN OVC015
      TEMPO 1003/1006 1SM -SHSN OVC010=

USA.gov is the U.S. government's official web portal to all federal, state and local government web resources and services.